Time;durP1;ratioP1;P1;durP2;ratioP2;P2;SDS_P1;SDS_P2;PMS_P1;PMS_P2;Temp;Humidity;BMP_temperature;BMP_pressure;BME280_temperature;BME280_humidity;BME280_pressure;Samples;Min_cycle;Max_cycle;Signal;HPM_P1;HPM_P2
2022/12/23 06:41:18;;;;;;;0.20;0.20;;;;;;;;;;7374185;19;20176;-65
2022/12/23 06:43:43;;;;;;;0.33;0.33;;;;;;;;;;7373941;19;20917;-65
2022/12/23 06:46:08;;;;;;;0.30;0.30;;;;;;;;;;7377624;19;20121;-65
2022/12/23 06:48:34;;;;;;;0.30;0.30;;;;;;;;;;7381882;19;20125;-65
2022/12/23 06:50:59;;;;;;;0.30;0.30;;;;;;;;;;7377494;19;20121;-65
2022/12/23 06:53:24;;;;;;;0.30;0.30;;;;;;;;;;7376047;19;20176;-64
2022/12/23 06:55:58;;;;;;;0.30;0.30;;;;;;;;;;7369595;19;21176;-64
2022/12/23 06:58:23;;;;;;;0.30;0.30;;;;;;;;;;7375982;19;20129;-65
2022/12/23 07:00:48;;;;;;;0.57;0.57;;;;;;;;;;7371873;19;20452;-65
2022/12/23 07:03:14;;;;;;;0.30;0.30;;;;;;;;;;7369204;19;20160;-64
2022/12/23 07:05:39;;;;;;;0.20;0.20;;;;;;;;;;7373157;19;20728;-65
2022/12/23 07:08:04;;;;;;;0.30;0.30;;;;;;;;;;7377258;19;20125;-65
2022/12/23 07:10:30;;;;;;;0.30;0.30;;;;;;;;;;7380441;19;20602;-65
2022/12/23 07:12:55;;;;;;;0.30;0.30;;;;;;;;;;7377816;19;20148;-65
2022/12/23 07:15:20;;;;;;;0.30;0.30;;;;;;;;;;7381983;19;20124;-65
2022/12/23 07:17:46;;;;;;;0.30;0.30;;;;;;;;;;7372405;19;20169;-65
2022/12/23 07:20:12;;;;;;;0.27;0.27;;;;;;;;;;7372267;19;20620;-64
2022/12/23 07:22:37;;;;;;;0.30;0.30;;;;;;;;;;7374518;19;20159;-64
2022/12/23 07:25:03;;;;;;;0.75;0.60;;;;;;;;;;7379231;19;20212;-64
2022/12/23 07:27:28;;;;;;;0.30;0.30;;;;;;;;;;7378645;19;20216;-65
2022/12/23 07:29:56;;;;;;;0.30;0.30;;;;;;;;;;7381765;19;20115;-64
2022/12/23 07:32:21;;;;;;;0.30;0.30;;;;;;;;;;7385620;19;20244;-64
2022/12/23 07:34:46;;;;;;;0.30;0.30;;;;;;;;;;7386335;19;20148;-64
2022/12/23 07:37:12;;;;;;;0.30;0.30;;;;;;;;;;7387361;19;20121;-65
2022/12/23 07:39:37;;;;;;;0.30;0.30;;;;;;;;;;7386758;19;20495;-65
2022/12/23 07:42:02;;;;;;;0.30;0.30;;;;;;;;;;7396441;19;20142;-65
2022/12/23 07:44:28;;;;;;;0.30;0.30;;;;;;;;;;7389425;19;20204;-64
2022/12/23 07:46:53;;;;;;;0.30;0.30;;;;;;;;;;7395196;19;20150;-64
2022/12/23 07:49:18;;;;;;;0.30;0.30;;;;;;;;;;7395960;19;20113;-64
2022/12/23 07:51:44;;;;;;;0.30;0.30;;;;;;;;;;7395604;19;20213;-64
2022/12/23 07:54:12;;;;;;;0.30;0.30;;;;;;;;;;7390827;19;20145;-64
2022/12/23 07:56:37;;;;;;;2.53;0.60;;;;;;;;;;7394284;19;20125;-64
2022/12/23 07:59:02;;;;;;;0.30;0.30;;;;;;;;;;7392001;19;20133;-64
2022/12/23 08:01:27;;;;;;;0.30;0.30;;;;;;;;;;7381589;19;20140;-65
2022/12/23 08:03:53;;;;;;;0.30;0.30;;;;;;;;;;7392382;19;20137;-64
2022/12/23 08:06:18;;;;;;;0.30;0.30;;;;;;;;;;7392237;19;20121;-64
2022/12/23 08:08:44;;;;;;;0.30;0.30;;;;;;;;;;7390045;19;20129;-64
2022/12/23 08:11:11;;;;;;;0.20;0.20;;;;;;;;;;7393365;19;20132;-64
2022/12/23 08:13:39;;;;;;;0.20;0.20;;;;;;;;;;7390932;19;20145;-64
2022/12/23 08:16:05;;;;;;;0.30;0.30;;;;;;;;;;7393770;19;20156;-64
2022/12/23 08:18:33;;;;;;;0.30;0.30;;;;;;;;;;7389601;19;20157;-64
2022/12/23 08:21:01;;;;;;;0.20;0.20;;;;;;;;;;7392451;19;20133;-64
2022/12/23 08:23:27;;;;;;;0.30;0.30;;;;;;;;;;7379410;19;20144;-64
2022/12/23 08:26:05;;;;;;;0.30;0.30;;;;;;;;;;7381946;19;20506;-64
2022/12/23 08:28:31;;;;;;;0.33;0.33;;;;;;;;;;7375857;19;20224;-64
2022/12/23 08:31:23;;;;;;;0.30;0.30;;;;;;;;;;7390527;19;20138;-64
2022/12/23 08:33:52;;;;;;;0.30;0.30;;;;;;;;;;7389575;19;20149;-64
2022/12/23 08:36:20;;;;;;;0.20;0.20;;;;;;;;;;7385771;19;20140;-64
2022/12/23 08:38:46;;;;;;;0.30;0.30;;;;;;;;;;7392187;19;20133;-64
2022/12/23 08:41:14;;;;;;;0.30;0.30;;;;;;;;;;7380372;19;20148;-64
2022/12/23 08:43:39;;;;;;;0.83;0.30;;;;;;;;;;7383672;19;20161;-65
2022/12/23 08:46:05;;;;;;;0.20;0.20;;;;;;;;;;7378335;19;20124;-63
2022/12/23 08:48:31;;;;;;;0.30;0.30;;;;;;;;;;7386348;19;20121;-64
2022/12/23 08:51:02;;;;;;;0.30;0.30;;;;;;;;;;7392655;19;20480;-65
2022/12/23 08:53:28;;;;;;;0.30;0.30;;;;;;;;;;7389028;19;20630;-65
2022/12/23 08:55:53;;;;;;;0.30;0.30;;;;;;;;;;7391701;19;20180;-64
2022/12/23 08:58:18;;;;;;;0.30;0.30;;;;;;;;;;7380954;19;20603;-63
2022/12/23 09:00:44;;;;;;;0.20;0.20;;;;;;;;;;7382955;19;20182;-63
2022/12/23 09:03:09;;;;;;;0.30;0.30;;;;;;;;;;7382717;19;20548;-65
2022/12/23 09:05:39;;;;;;;0.40;0.40;;;;;;;;;;7385102;19;20117;-65
2022/12/23 09:08:04;;;;;;;0.70;0.70;;;;;;;;;;7389815;19;20137;-65
2022/12/23 09:10:30;;;;;;;0.30;0.30;;;;;;;;;;7389801;19;20149;-65
2022/12/23 09:12:55;;;;;;;0.40;0.40;;;;;;;;;;7389703;19;20208;-65
2022/12/23 09:15:20;;;;;;;0.30;0.30;;;;;;;;;;7389931;19;20151;-65
2022/12/23 09:17:45;;;;;;;0.30;0.30;;;;;;;;;;7392940;19;20639;-65
2022/12/23 09:20:11;;;;;;;0.30;0.30;;;;;;;;;;7390456;19;20185;-65
2022/12/23 09:22:36;;;;;;;0.30;0.30;;;;;;;;;;7391475;19;20183;-64
2022/12/23 09:25:02;;;;;;;0.35;0.35;;;;;;;;;;7392483;19;20624;-65
2022/12/23 09:27:27;;;;;;;0.30;0.30;;;;;;;;;;7390399;19;20120;-65
2022/12/23 09:29:52;;;;;;;0.30;0.30;;;;;;;;;;7391726;19;20125;-65
2022/12/23 09:32:18;;;;;;;0.30;0.30;;;;;;;;;;7373892;19;20141;-65
2022/12/23 09:34:43;;;;;;;0.43;0.43;;;;;;;;;;7377958;19;20468;-65
2022/12/23 09:37:11;;;;;;;0.30;0.30;;;;;;;;;;7386481;19;20113;-65
2022/12/23 09:39:36;;;;;;;0.52;0.52;;;;;;;;;;7381839;19;20135;-65
2022/12/23 09:42:06;;;;;;;0.73;0.73;;;;;;;;;;7381256;19;20117;-65
2022/12/23 09:45:07;;;;;;;0.30;0.30;;;;;;;;;;7378461;19;20152;-65
2022/12/23 09:47:33;;;;;;;0.20;0.20;;;;;;;;;;7374253;19;20641;-65
2022/12/23 09:50:09;;;;;;;0.30;0.30;;;;;;;;;;7384799;19;20140;-65
2022/12/23 09:52:59;;;;;;;0.30;0.30;;;;;;;;;;7389019;19;20244;-63
2022/12/23 09:55:33;;;;;;;0.30;0.30;;;;;;;;;;7370041;19;20117;-65
2022/12/23 09:58:00;;;;;;;0.20;0.20;;;;;;;;;;7368006;19;20212;-63
2022/12/23 10:00:30;;;;;;;0.45;0.45;;;;;;;;;;7377708;19;20780;-63
2022/12/23 10:03:12;;;;;;;0.30;0.30;;;;;;;;;;7382720;19;20168;-63
2022/12/23 10:06:00;;;;;;;0.40;0.40;;;;;;;;;;7380181;19;20479;-63
2022/12/23 10:08:28;;;;;;;0.30;0.30;;;;;;;;;;7374756;19;20144;-63
2022/12/23 10:10:57;;;;;;;0.30;0.30;;;;;;;;;;7365637;19;20206;-63
2022/12/23 10:13:42;;;;;;;0.30;0.30;;;;;;;;;;7382409;19;20198;-63
2022/12/23 10:16:13;;;;;;;0.30;0.30;;;;;;;;;;7370134;19;20467;-63
2022/12/23 10:18:56;;;;;;;0.30;0.30;;;;;;;;;;7389637;19;20156;-63
2022/12/23 10:21:49;;;;;;;0.30;0.30;;;;;;;;;;7381534;19;20195;-63
2022/12/23 10:24:27;;;;;;;0.30;0.30;;;;;;;;;;7385552;19;20672;-64
2022/12/23 10:27:00;;;;;;;0.30;0.30;;;;;;;;;;7389843;19;20125;-65
2022/12/23 10:29:29;;;;;;;0.40;0.40;;;;;;;;;;7384954;19;20121;-65
2022/12/23 10:32:16;;;;;;;0.30;0.30;;;;;;;;;;7365660;19;20535;-65
2022/12/23 10:35:01;;;;;;;0.30;0.30;;;;;;;;;;7366879;19;20140;-65
2022/12/23 10:37:37;;;;;;;0.30;0.30;;;;;;;;;;7385573;19;20123;-64
2022/12/23 10:40:23;;;;;;;0.33;0.33;;;;;;;;;;7378339;19;20136;-64
2022/12/23 10:43:07;;;;;;;0.30;0.30;;;;;;;;;;7381975;19;20141;-65
2022/12/23 10:45:47;;;;;;;0.30;0.30;;;;;;;;;;7385650;19;20125;-64
2022/12/23 10:48:22;;;;;;;0.37;0.37;;;;;;;;;;7383741;19;20132;-64
2022/12/23 10:50:53;;;;;;;0.30;0.30;;;;;;;;;;7386054;19;20599;-64
2022/12/23 10:53:29;;;;;;;0.30;0.30;;;;;;;;;;7382254;19;20615;-64
2022/12/23 10:55:55;;;;;;;0.40;0.40;;;;;;;;;;7384744;19;20477;-65
2022/12/23 10:58:21;;;;;;;0.40;0.40;;;;;;;;;;7387699;19;20121;-63
2022/12/23 11:00:55;;;;;;;0.30;0.30;;;;;;;;;;7384904;19;20131;-66
2022/12/23 11:03:28;;;;;;;0.53;0.40;;;;;;;;;;7382541;19;20662;-65
2022/12/23 11:05:53;;;;;;;0.30;0.30;;;;;;;;;;7383644;19;20117;-65
2022/12/23 11:08:19;;;;;;;0.60;0.60;;;;;;;;;;7351502;19;20500;-65
2022/12/23 11:10:45;;;;;;;0.40;0.40;;;;;;;;;;7359901;19;20141;-65
2022/12/23 11:13:22;;;;;;;2.10;0.60;;;;;;;;;;7348623;19;20153;-65
2022/12/23 11:15:47;;;;;;;0.40;0.40;;;;;;;;;;7349767;19;20138;-65
2022/12/23 11:18:12;;;;;;;0.30;0.30;;;;;;;;;;7361745;19;20137;-63
2022/12/23 11:20:40;;;;;;;0.30;0.30;;;;;;;;;;7366367;19;20131;-65
2022/12/23 11:23:22;;;;;;;0.20;0.20;;;;;;;;;;7357601;19;20188;-65
2022/12/23 11:25:47;;;;;;;0.40;0.40;;;;;;;;;;7353555;19;20643;-65
2022/12/23 11:28:17;;;;;;;0.30;0.30;;;;;;;;;;7371559;19;20133;-65
2022/12/23 11:30:52;;;;;;;0.30;0.30;;;;;;;;;;7369998;19;20416;-65
2022/12/23 11:33:24;;;;;;;1.03;0.60;;;;;;;;;;7373786;19;20345;-65
2022/12/23 11:36:00;;;;;;;0.30;0.30;;;;;;;;;;7376786;19;20143;-65
2022/12/23 11:38:25;;;;;;;0.30;0.30;;;;;;;;;;7370235;19;20129;-64
2022/12/23 11:40:51;;;;;;;0.40;0.40;;;;;;;;;;7359540;19;20621;-64
2022/12/23 11:43:16;;;;;;;0.40;0.40;;;;;;;;;;7358459;19;20144;-64
2022/12/23 11:45:41;;;;;;;0.30;0.30;;;;;;;;;;7354761;19;20204;-64
2022/12/23 11:48:26;;;;;;;0.30;0.30;;;;;;;;;;7371025;19;20709;-64
2022/12/23 11:50:59;;;;;;;0.30;0.30;;;;;;;;;;7383096;19;20121;-64
2022/12/23 11:53:26;;;;;;;0.30;0.30;;;;;;;;;;7374365;19;20153;-64
2022/12/23 11:56:03;;;;;;;0.30;0.30;;;;;;;;;;7368705;19;20117;-64
2022/12/23 11:58:31;;;;;;;0.60;0.60;;;;;;;;;;7379672;19;20132;-64
2022/12/23 12:00:59;;;;;;;0.30;0.30;;;;;;;;;;7375538;19;20128;-64
2022/12/23 12:03:31;;;;;;;0.30;0.30;;;;;;;;;;7365670;19;20157;-64
2022/12/23 12:06:05;;;;;;;2.13;0.43;;;;;;;;;;7369010;19;20132;-64
2022/12/23 12:08:36;;;;;;;0.70;0.50;;;;;;;;;;7360892;19;20148;-64
2022/12/23 12:11:07;;;;;;;0.32;0.32;;;;;;;;;;7375561;19;20155;-64
2022/12/23 12:13:38;;;;;;;0.30;0.30;;;;;;;;;;7368989;19;20186;-64
2022/12/23 12:16:32;;;;;;;0.30;0.30;;;;;;;;;;7385549;19;20139;-63
2022/12/23 12:19:05;;;;;;;0.30;0.30;;;;;;;;;;7371718;19;20607;-63
2022/12/23 12:21:35;;;;;;;0.60;0.60;;;;;;;;;;7370629;19;20180;-63
2022/12/23 12:24:13;;;;;;;0.30;0.30;;;;;;;;;;7375870;19;20481;-63
2022/12/23 12:26:39;;;;;;;0.30;0.30;;;;;;;;;;7369041;19;20140;-64
2022/12/23 12:29:15;;;;;;;0.32;0.32;;;;;;;;;;7365016;19;20225;-64
2022/12/23 12:31:47;;;;;;;0.45;0.45;;;;;;;;;;7368032;19;20129;-64
2022/12/23 12:34:34;;;;;;;0.67;0.57;;;;;;;;;;7373052;19;20630;-64
2022/12/23 12:37:06;;;;;;;0.30;0.30;;;;;;;;;;7384745;19;20512;-63
2022/12/23 12:39:42;;;;;;;0.30;0.30;;;;;;;;;;7369089;19;20133;-64
2022/12/23 12:42:32;;;;;;;0.30;0.30;;;;;;;;;;7362557;19;20212;-64
2022/12/23 12:45:02;;;;;;;0.30;0.30;;;;;;;;;;7366904;19;20137;-63
2022/12/23 12:47:36;;;;;;;0.30;0.30;;;;;;;;;;7377204;19;20716;-63
2022/12/23 12:50:06;;;;;;;0.50;0.50;;;;;;;;;;7362501;19;20132;-63
2022/12/23 12:52:36;;;;;;;0.30;0.30;;;;;;;;;;7371515;19;20236;-65
2022/12/23 12:55:13;;;;;;;0.20;0.20;;;;;;;;;;7375597;19;20141;-64
2022/12/23 12:57:39;;;;;;;0.30;0.30;;;;;;;;;;7362070;19;20187;-65
2022/12/23 13:00:13;;;;;;;0.22;0.22;;;;;;;;;;7361041;19;21548;-64
2022/12/23 13:03:44;;;;;;;0.30;0.30;;;;;;;;;;7366177;19;20145;-64
2022/12/23 13:06:12;;;;;;;0.40;0.40;;;;;;;;;;7365836;19;20146;-64
2022/12/23 13:08:56;;;;;;;0.30;0.30;;;;;;;;;;7379141;19;20245;-64
2022/12/23 13:11:43;;;;;;;0.30;0.30;;;;;;;;;;7377255;19;20136;-64
2022/12/23 13:14:32;;;;;;;0.30;0.30;;;;;;;;;;7381094;19;20155;-64
2022/12/23 13:17:12;;;;;;;0.38;0.38;;;;;;;;;;7392816;19;20136;-64
2022/12/23 13:19:47;;;;;;;0.30;0.30;;;;;;;;;;7368215;19;20635;-64
2022/12/23 13:22:17;;;;;;;0.45;0.45;;;;;;;;;;7371544;19;20490;-64
2022/12/23 13:24:54;;;;;;;0.40;0.40;;;;;;;;;;7369398;19;21447;-64
2022/12/23 13:27:29;;;;;;;0.30;0.30;;;;;;;;;;7381605;19;20223;-64
2022/12/23 13:30:12;;;;;;;0.30;0.30;;;;;;;;;;7391525;19;20139;-64
2022/12/23 13:32:58;;;;;;;0.40;0.40;;;;;;;;;;7383909;19;20182;-64
2022/12/23 13:35:32;;;;;;;0.50;0.50;;;;;;;;;;7385489;19;20124;-64
2022/12/23 13:38:25;;;;;;;0.30;0.30;;;;;;;;;;7380776;19;20566;-64
2022/12/23 13:40:58;;;;;;;0.30;0.30;;;;;;;;;;7371199;19;20141;-64
2022/12/23 13:43:25;;;;;;;0.20;0.20;;;;;;;;;;7366500;19;20154;-64
2022/12/23 13:45:52;;;;;;;0.30;0.30;;;;;;;;;;7378922;19;20212;-64
2022/12/23 13:48:35;;;;;;;0.30;0.30;;;;;;;;;;7376374;19;20180;-64
2022/12/23 13:51:42;;;;;;;0.30;0.30;;;;;;;;;;7368893;19;20136;-63
2022/12/23 13:54:16;;;;;;;0.30;0.30;;;;;;;;;;7368899;19;20650;-62
2022/12/23 13:56:45;;;;;;;0.30;0.30;;;;;;;;;;7365469;19;20594;-62
2022/12/23 13:59:13;;;;;;;0.30;0.30;;;;;;;;;;7376959;19;20121;-63
2022/12/23 14:01:38;;;;;;;0.25;0.25;;;;;;;;;;7371919;19;20125;-62
2022/12/23 14:04:36;;;;;;;0.20;0.20;;;;;;;;;;7376548;19;20211;-63
2022/12/23 14:07:17;;;;;;;0.30;0.30;;;;;;;;;;7378798;19;20220;-62
2022/12/23 14:09:50;;;;;;;0.47;0.47;;;;;;;;;;7375580;19;20201;-62
2022/12/23 14:12:34;;;;;;;0.30;0.30;;;;;;;;;;7371279;19;20164;-62
2022/12/23 14:15:27;;;;;;;0.30;0.30;;;;;;;;;;7372073;19;20158;-62
2022/12/23 14:18:07;;;;;;;0.30;0.30;;;;;;;;;;7379854;19;20128;-62
2022/12/23 14:20:48;;;;;;;0.30;0.30;;;;;;;;;;7376708;19;20136;-62
2022/12/23 14:23:16;;;;;;;0.30;0.30;;;;;;;;;;7384510;19;20156;-62
2022/12/23 14:26:01;;;;;;;0.30;0.30;;;;;;;;;;7381756;19;20204;-62
2022/12/23 14:28:51;;;;;;;0.30;0.30;;;;;;;;;;7380778;19;20129;-62
2022/12/23 14:31:31;;;;;;;0.30;0.30;;;;;;;;;;7384170;19;20113;-62
2022/12/23 14:34:04;;;;;;;0.30;0.30;;;;;;;;;;7385460;19;20156;-62
2022/12/23 14:36:30;;;;;;;0.30;0.30;;;;;;;;;;7375810;19;20129;-61
2022/12/23 14:39:15;;;;;;;0.30;0.30;;;;;;;;;;7371765;19;20120;-62
2022/12/23 14:41:49;;;;;;;0.30;0.30;;;;;;;;;;7376240;19;20144;-62
2022/12/23 14:44:42;;;;;;;0.20;0.20;;;;;;;;;;7368831;19;20153;-62
2022/12/23 14:47:45;;;;;;;0.30;0.30;;;;;;;;;;7367337;19;20132;-62
2022/12/23 14:50:40;;;;;;;0.30;0.30;;;;;;;;;;7381214;19;20501;-61
2022/12/23 14:53:26;;;;;;;0.30;0.30;;;;;;;;;;7369231;19;20260;-62
2022/12/23 14:56:10;;;;;;;0.20;0.20;;;;;;;;;;7371295;19;20619;-62
2022/12/23 14:58:50;;;;;;;0.30;0.30;;;;;;;;;;7360485;19;20135;-61
2022/12/23 15:01:19;;;;;;;0.30;0.30;;;;;;;;;;7366512;19;20129;-62
2022/12/23 15:03:49;;;;;;;0.30;0.30;;;;;;;;;;7365649;19;21934;-62
2022/12/23 15:06:19;;;;;;;0.30;0.30;;;;;;;;;;7378685;19;20134;-61
2022/12/23 15:08:45;;;;;;;0.30;0.30;;;;;;;;;;7373634;19;20132;-62
2022/12/23 15:11:27;;;;;;;0.35;0.35;;;;;;;;;;7356402;19;20158;-62
2022/12/23 15:13:54;;;;;;;0.30;0.30;;;;;;;;;;7369102;19;20164;-62
2022/12/23 15:16:32;;;;;;;0.30;0.30;;;;;;;;;;7366292;19;20133;-62
2022/12/23 15:19:01;;;;;;;0.32;0.32;;;;;;;;;;7374382;19;20603;-62
2022/12/23 15:21:29;;;;;;;0.40;0.40;;;;;;;;;;7370688;19;20773;-62
2022/12/23 15:23:54;;;;;;;0.20;0.20;;;;;;;;;;7369149;19;20152;-62
2022/12/23 15:26:25;;;;;;;0.30;0.30;;;;;;;;;;7371259;19;20128;-62
2022/12/23 15:28:50;;;;;;;0.30;0.30;;;;;;;;;;7375346;19;20160;-62
2022/12/23 15:31:28;;;;;;;0.30;0.30;;;;;;;;;;7369515;19;20168;-62
2022/12/23 15:33:54;;;;;;;0.30;0.30;;;;;;;;;;7351730;19;20156;-62
2022/12/23 15:36:25;;;;;;;0.32;0.32;;;;;;;;;;7366734;19;20817;-62
2022/12/23 15:38:51;;;;;;;0.30;0.30;;;;;;;;;;7382986;19;20509;-62
2022/12/23 15:41:17;;;;;;;0.30;0.30;;;;;;;;;;7375081;19;20129;-62
2022/12/23 15:43:43;;;;;;;0.30;0.30;;;;;;;;;;7373683;19;20507;-62
2022/12/23 15:46:16;;;;;;;0.30;0.30;;;;;;;;;;7352308;19;20156;-62
2022/12/23 15:48:42;;;;;;;0.30;0.30;;;;;;;;;;7340374;19;20136;-62
2022/12/23 15:51:11;;;;;;;0.30;0.30;;;;;;;;;;7364237;19;20121;-62
2022/12/23 15:53:38;;;;;;;0.20;0.20;;;;;;;;;;7359672;19;20719;-62
2022/12/23 15:56:09;;;;;;;0.30;0.30;;;;;;;;;;7358167;19;20140;-61
2022/12/23 15:58:38;;;;;;;0.20;0.20;;;;;;;;;;7372543;19;20144;-62
2022/12/23 16:01:03;;;;;;;0.30;0.30;;;;;;;;;;7356990;19;20125;-62
2022/12/23 16:03:38;;;;;;;0.30;0.30;;;;;;;;;;7346822;19;20169;-62
2022/12/23 16:06:10;;;;;;;0.20;0.20;;;;;;;;;;7361875;19;20566;-62
2022/12/23 16:08:36;;;;;;;0.40;0.40;;;;;;;;;;7368873;19;20218;-62
2022/12/23 16:11:05;;;;;;;0.30;0.30;;;;;;;;;;7366327;19;20117;-62
2022/12/23 16:13:30;;;;;;;0.30;0.30;;;;;;;;;;7371552;19;20145;-63
2022/12/23 16:16:16;;;;;;;0.30;0.30;;;;;;;;;;7371013;19;20128;-62
2022/12/23 16:18:42;;;;;;;0.30;0.30;;;;;;;;;;7384092;19;20121;-63
2022/12/23 16:21:11;;;;;;;0.20;0.20;;;;;;;;;;7378932;19;20113;-62
2022/12/23 16:23:38;;;;;;;0.30;0.30;;;;;;;;;;7368053;19;20647;-63
2022/12/23 16:26:03;;;;;;;0.30;0.30;;;;;;;;;;7359736;19;20779;-63
2022/12/23 16:28:37;;;;;;;0.95;0.50;;;;;;;;;;7363605;19;20154;-63
2022/12/23 16:31:05;;;;;;;0.30;0.30;;;;;;;;;;7370355;19;20587;-63
2022/12/23 16:33:38;;;;;;;0.30;0.30;;;;;;;;;;7359989;19;20155;-63
2022/12/23 16:36:18;;;;;;;0.30;0.30;;;;;;;;;;7357908;19;20130;-63
2022/12/23 16:38:44;;;;;;;0.32;0.32;;;;;;;;;;7365000;19;21089;-63
2022/12/23 16:41:09;;;;;;;0.30;0.30;;;;;;;;;;7368841;19;20121;-63
2022/12/23 16:43:34;;;;;;;0.30;0.30;;;;;;;;;;7364267;19;20163;-63
2022/12/23 16:46:00;;;;;;;1.00;0.45;;;;;;;;;;7373309;19;20146;-63
2022/12/23 16:48:32;;;;;;;0.30;0.30;;;;;;;;;;7377549;19;20121;-63
2022/12/23 16:50:58;;;;;;;0.40;0.40;;;;;;;;;;7387590;19;20583;-63
2022/12/23 16:53:23;;;;;;;0.30;0.30;;;;;;;;;;7388631;19;20404;-63
2022/12/23 16:55:49;;;;;;;0.30;0.30;;;;;;;;;;7385833;19;20137;-63
2022/12/23 16:58:15;;;;;;;0.30;0.30;;;;;;;;;;7366077;19;20160;-63
2022/12/23 17:00:41;;;;;;;5.68;0.68;;;;;;;;;;7376455;19;20117;-63
2022/12/23 17:03:07;;;;;;;0.30;0.30;;;;;;;;;;7391638;19;20204;-63
2022/12/23 17:05:32;;;;;;;0.30;0.30;;;;;;;;;;7381369;19;20575;-62
2022/12/23 17:07:57;;;;;;;0.40;0.40;;;;;;;;;;7380903;19;20133;-62
2022/12/23 17:10:23;;;;;;;0.20;0.20;;;;;;;;;;7359487;19;20128;-62
2022/12/23 17:12:49;;;;;;;0.30;0.30;;;;;;;;;;7374624;19;20184;-62
2022/12/23 17:15:20;;;;;;;0.40;0.40;;;;;;;;;;7375862;19;20121;-63
2022/12/23 17:17:47;;;;;;;0.40;0.40;;;;;;;;;;7385361;19;20488;-62
2022/12/23 17:20:12;;;;;;;0.20;0.20;;;;;;;;;;7377528;19;20119;-62
2022/12/23 17:22:38;;;;;;;0.38;0.38;;;;;;;;;;7392290;19;20624;-62
2022/12/23 17:25:04;;;;;;;0.20;0.20;;;;;;;;;;7389608;19;20144;-63
2022/12/23 17:27:29;;;;;;;0.20;0.20;;;;;;;;;;7376827;19;20141;-62
2022/12/23 17:29:55;;;;;;;0.30;0.30;;;;;;;;;;7388064;19;20136;-63
2022/12/23 17:32:20;;;;;;;0.40;0.40;;;;;;;;;;7373812;19;20159;-63
2022/12/23 17:34:45;;;;;;;0.30;0.30;;;;;;;;;;7383482;19;20140;-63
2022/12/23 17:37:15;;;;;;;0.30;0.30;;;;;;;;;;7383760;19;20165;-63
2022/12/23 17:39:42;;;;;;;0.20;0.20;;;;;;;;;;7382761;19;20172;-63
2022/12/23 17:42:13;;;;;;;0.43;0.43;;;;;;;;;;7384484;19;20156;-63
2022/12/23 17:44:39;;;;;;;0.30;0.30;;;;;;;;;;7383130;19;20131;-63
2022/12/23 17:47:11;;;;;;;0.30;0.30;;;;;;;;;;7375758;19;20121;-63
2022/12/23 17:49:37;;;;;;;0.30;0.30;;;;;;;;;;7375732;19;20160;-63
2022/12/23 17:52:05;;;;;;;0.30;0.30;;;;;;;;;;7371416;19;20506;-63
2022/12/23 17:54:30;;;;;;;0.38;0.38;;;;;;;;;;7369729;19;20551;-62
2022/12/23 17:56:56;;;;;;;0.40;0.40;;;;;;;;;;7383339;19;20132;-63
2022/12/23 17:59:21;;;;;;;0.30;0.30;;;;;;;;;;7386846;19;20121;-63
2022/12/23 18:01:46;;;;;;;0.20;0.20;;;;;;;;;;7381131;19;20121;-63
2022/12/23 18:04:12;;;;;;;0.32;0.32;;;;;;;;;;7380816;19;20629;-62
2022/12/23 18:06:37;;;;;;;0.30;0.30;;;;;;;;;;7376357;19;20504;-62
2022/12/23 18:09:02;;;;;;;0.30;0.30;;;;;;;;;;7383710;19;20129;-62
2022/12/23 18:11:54;;;;;;;0.30;0.30;;;;;;;;;;7384083;19;20502;-62
2022/12/23 18:14:26;;;;;;;0.30;0.30;;;;;;;;;;7383392;19;20172;-62
2022/12/23 18:16:51;;;;;;;0.30;0.30;;;;;;;;;;7388271;19;20129;-62
2022/12/23 18:19:19;;;;;;;0.20;0.20;;;;;;;;;;7388429;19;20521;-64
2022/12/23 18:21:44;;;;;;;0.30;0.30;;;;;;;;;;7378843;19;20129;-62
2022/12/23 18:24:10;;;;;;;0.63;0.63;;;;;;;;;;7384008;19;20474;-62
2022/12/23 18:26:54;;;;;;;0.30;0.30;;;;;;;;;;7381851;19;20706;-62
2022/12/23 18:29:19;;;;;;;0.40;0.40;;;;;;;;;;7386605;19;20537;-63
2022/12/23 18:31:47;;;;;;;0.30;0.30;;;;;;;;;;7385252;19;20595;-63
2022/12/23 18:34:16;;;;;;;0.20;0.20;;;;;;;;;;7385038;19;20168;-62
2022/12/23 18:36:52;;;;;;;0.30;0.30;;;;;;;;;;7383482;19;20149;-63
2022/12/23 18:39:18;;;;;;;0.30;0.30;;;;;;;;;;7382189;19;20224;-63
